createdAt,value
2023-03-21T00:01:53.410Z,101704.78
2023-03-21T00:04:21.552Z,101696.75
2023-03-21T00:06:49.012Z,101690.53
2023-03-21T00:09:15.938Z,101691.63
2023-03-21T00:11:43.035Z,101687.44
2023-03-21T00:14:14.671Z,101692.06
2023-03-21T00:16:42.134Z,101691.31
2023-03-21T00:19:09.894Z,101683.72
2023-03-21T00:21:49.017Z,101681.34
2023-03-21T00:24:23.299Z,101675.56
2023-03-21T00:26:51.258Z,101679.22
2023-03-21T00:29:19.140Z,101683.09
2023-03-21T00:31:46.927Z,101685.25
2023-03-21T00:34:14.033Z,101693.53
2023-03-21T00:36:41.179Z,101691.03
2023-03-21T00:39:08.392Z,101685.03
2023-03-21T00:41:42.588Z,101691.59
2023-03-21T00:44:15.769Z,101682.69
2023-03-21T00:46:51.632Z,101688.28
2023-03-21T00:49:24.178Z,101680.34
2023-03-21T00:51:51.866Z,101676.09
2023-03-21T00:54:19.721Z,101686.13
2023-03-21T00:56:46.706Z,101681.97
2023-03-21T00:59:14.082Z,101670.53
2023-03-21T01:01:40.989Z,101675.03
2023-03-21T01:04:13.706Z,101666.97
2023-03-21T01:06:42.525Z,101660.13
2023-03-21T01:09:21.473Z,101671.03
2023-03-21T01:11:49.652Z,101655.19
2023-03-21T01:14:22.803Z,101652.50
2023-03-21T01:16:53.678Z,101646.63
2023-03-21T01:19:37.905Z,101659.16
2023-03-21T01:22:09.466Z,101647.81
2023-03-21T01:24:40.555Z,101651.44
2023-03-21T01:27:10.565Z,101648.22
2023-03-21T01:29:37.817Z,101642.88
2023-03-21T01:32:05.069Z,101639.25
2023-03-21T01:34:32.445Z,101641.91
2023-03-21T01:36:59.448Z,101641.78
2023-03-21T01:39:26.643Z,101632.91
2023-03-21T01:41:53.672Z,101631.06
2023-03-21T01:44:26.925Z,101632.16
2023-03-21T01:47:12.206Z,101630.53
2023-03-21T01:49:49.980Z,101626.38
2023-03-21T01:52:52.201Z,101621.34
2023-03-21T01:55:28.871Z,101618.47
2023-03-21T01:58:10.290Z,101620.91
2023-03-21T02:01:03.112Z,101619.94
2023-03-21T02:03:50.376Z,101618.00
2023-03-21T02:06:49.152Z,101602.16
2023-03-21T02:09:33.625Z,101604.72
2023-03-21T02:12:02.301Z,101594.22
2023-03-21T02:14:34.821Z,101596.03
2023-03-21T02:17:41.182Z,101597.53
2023-03-21T02:20:52.535Z,101592.31
2023-03-21T02:23:56.539Z,101587.38
2023-03-21T02:26:42.438Z,101580.31
2023-03-21T02:29:19.525Z,101576.25
2023-03-21T02:32:28.341Z,101576.34
2023-03-21T02:35:39.019Z,101572.16
2023-03-21T02:38:42.365Z,101569.78
2023-03-21T02:41:19.596Z,101570.00
2023-03-21T02:43:56.614Z,101566.78
2023-03-21T02:46:42.926Z,101557.16
2023-03-21T02:49:22.395Z,101555.63
2023-03-21T02:51:51.100Z,101546.03
2023-03-21T02:54:32.554Z,101541.53
2023-03-21T02:57:10.359Z,101534.88
2023-03-21T02:59:51.813Z,101543.03
2023-03-21T03:02:28.557Z,101528.03
2023-03-21T03:04:55.833Z,101534.56
2023-03-21T03:07:48.822Z,101533.59
2023-03-21T03:10:32.908Z,101531.13
2023-03-21T03:13:27.568Z,101524.28
2023-03-21T03:16:05.316Z,101521.81
2023-03-21T03:18:41.192Z,101518.38
2023-03-21T03:21:17.876Z,101512.28
2023-03-21T03:24:10.415Z,101510.34
2023-03-21T03:26:45.129Z,101506.19
2023-03-21T03:29:17.669Z,101503.81
2023-03-21T03:32:03.536Z,101502.97
2023-03-21T03:34:39.720Z,101503.19
2023-03-21T03:37:14.626Z,101492.66
2023-03-21T03:39:48.338Z,101487.53
2023-03-21T03:42:36.453Z,101488.63
2023-03-21T03:45:14.664Z,101492.44
2023-03-21T03:47:59.032Z,101496.44
2023-03-21T03:50:37.394Z,101483.25
2023-03-21T03:53:18.346Z,101489.66
2023-03-21T03:55:48.009Z,101494.25
2023-03-21T03:58:24.227Z,101489.22
2023-03-21T04:00:56.165Z,101494.78
2023-03-21T04:03:24.020Z,101490.69
2023-03-21T04:05:52.068Z,101492.72
2023-03-21T04:08:19.028Z,101491.75
2023-03-21T04:10:52.157Z,101491.97
2023-03-21T04:13:19.812Z,101493.22
2023-03-21T04:16:03.843Z,101490.69
2023-03-21T04:18:31.126Z,101492.59
2023-03-21T04:20:58.756Z,101494.31
2023-03-21T04:23:29.413Z,101489.16
2023-03-21T04:25:57.376Z,101490.00
2023-03-21T04:28:38.161Z,101493.84
2023-03-21T04:31:27.446Z,101500.06
2023-03-21T04:34:12.780Z,101500.44
2023-03-21T04:36:46.366Z,101503.13
2023-03-21T04:39:15.093Z,101498.00
2023-03-21T04:41:46.739Z,101499.72
2023-03-21T04:44:15.980Z,101497.91
2023-03-21T04:46:43.664Z,101492.56
2023-03-21T04:49:12.080Z,101497.78
2023-03-21T04:51:39.754Z,101488.91
2023-03-21T04:56:42.994Z,101487.34
2023-03-21T04:59:13.782Z,101486.34
2023-03-21T05:01:44.068Z,101487.31
2023-03-21T05:04:13.610Z,101481.97
2023-03-21T05:06:44.352Z,101482.91
2023-03-21T05:09:12.865Z,101475.81
2023-03-21T05:11:41.318Z,101476.97
2023-03-21T05:14:13.915Z,101478.78
2023-03-21T05:16:53.519Z,101480.59
2023-03-21T05:19:23.153Z,101485.22
2023-03-21T05:21:51.088Z,101477.94
2023-03-21T05:24:24.985Z,101478.16
2023-03-21T05:26:56.409Z,101480.72
2023-03-21T05:29:28.205Z,101481.59
2023-03-21T05:32:01.860Z,101484.25
2023-03-21T05:34:29.165Z,101476.13
2023-03-21T05:36:56.391Z,101479.66
2023-03-21T05:39:26.317Z,101489.28
2023-03-21T05:42:07.725Z,101481.38
2023-03-21T05:44:35.431Z,101481.38
2023-03-21T05:47:06.246Z,101486.72
2023-03-21T05:49:44.972Z,101487.56
2023-03-21T05:52:12.172Z,101499.22
2023-03-21T05:54:39.111Z,101498.16
2023-03-21T05:57:06.815Z,101498.94
2023-03-21T05:59:59.888Z,101497.03
2023-03-21T06:02:28.181Z,101498.44
2023-03-21T06:04:58.021Z,101491.81
2023-03-21T06:07:26.712Z,101497.53
2023-03-21T06:09:53.751Z,101494.41
2023-03-21T06:12:21.177Z,101496.28
2023-03-21T06:15:14.477Z,101491.81
2023-03-21T06:17:54.811Z,101491.53
2023-03-21T06:20:21.891Z,101496.56
2023-03-21T06:22:52.976Z,101495.25
2023-03-21T06:25:20.043Z,101500.09
2023-03-21T06:27:47.144Z,101502.06
2023-03-21T06:30:18.683Z,101509.72
2023-03-21T06:32:58.213Z,101515.44
2023-03-21T06:35:25.461Z,101518.25
2023-03-21T06:37:52.424Z,101523.78
2023-03-21T06:40:20.749Z,101524.13
2023-03-21T06:42:47.786Z,101520.47
2023-03-21T06:45:15.010Z,101526.31
2023-03-21T06:47:43.020Z,101517.06
2023-03-21T06:50:19.489Z,101512.50
2023-03-21T06:52:46.603Z,101525.13
2023-03-21T06:55:14.658Z,101526.66
2023-03-21T06:57:43.935Z,101531.59
2023-03-21T07:00:13.757Z,101531.16
2023-03-21T07:02:46.628Z,101524.31
2023-03-21T07:05:17.065Z,101527.97
2023-03-21T07:07:44.625Z,101526.22
2023-03-21T07:10:11.945Z,101524.19
2023-03-21T07:12:47.089Z,101535.22
2023-03-21T07:15:38.666Z,101537.03
2023-03-21T07:18:07.028Z,101521.47
2023-03-21T07:20:35.283Z,101530.78
2023-03-21T07:23:02.605Z,101532.03
2023-03-21T07:25:29.559Z,101526.75
2023-03-21T07:27:57.766Z,101535.47
2023-03-21T07:30:25.908Z,101532.56
2023-03-21T07:32:53.602Z,101541.88
2023-03-21T07:35:20.768Z,101548.44
2023-03-21T07:37:47.746Z,101541.31
2023-03-21T07:40:17.041Z,101545.25
2023-03-21T07:42:44.529Z,101545.66
2023-03-21T07:45:19.865Z,101542.41
2023-03-21T07:47:48.968Z,101542.41
2023-03-21T07:50:16.680Z,101542.00
2023-03-21T07:52:44.770Z,101540.84
2023-03-21T07:55:11.716Z,101537.72
2023-03-21T07:57:38.641Z,101541.47
2023-03-21T08:00:07.284Z,101549.94
2023-03-21T08:02:39.877Z,101553.06
2023-03-21T08:05:07.002Z,101542.75
2023-03-21T08:07:33.956Z,101534.75
2023-03-21T08:10:01.518Z,101539.59
2023-03-21T08:12:28.417Z,101537.13
2023-03-21T08:14:55.528Z,101543.69
2023-03-21T08:17:22.434Z,101537.75
2023-03-21T08:19:49.521Z,101537.53
2023-03-21T08:22:16.455Z,101545.69
2023-03-21T08:24:43.477Z,101542.03
2023-03-21T08:27:10.377Z,101546.28
2023-03-21T08:32:29.779Z,101559.38
2023-03-21T08:35:02.158Z,101553.22
2023-03-21T08:37:29.400Z,101566.81
2023-03-21T08:39:56.308Z,101554.00
2023-03-21T08:42:23.356Z,101557.50
2023-03-21T08:44:51.000Z,101561.63
2023-03-21T08:47:17.986Z,101570.31
2023-03-21T08:49:46.011Z,101572.50
2023-03-21T08:52:13.002Z,101569.19
2023-03-21T08:54:41.919Z,101566.94
2023-03-21T08:57:09.106Z,101575.81
2023-03-21T08:59:36.166Z,101572.34
2023-03-21T09:02:03.699Z,101574.38
2023-03-21T09:04:31.367Z,101577.66
2023-03-21T09:07:01.457Z,101564.50
2023-03-21T09:09:29.143Z,101572.06
2023-03-21T09:11:56.358Z,101569.88
2023-03-21T09:14:28.480Z,101567.09
2023-03-21T09:16:56.243Z,101562.63
2023-03-21T09:19:24.351Z,101573.59
2023-03-21T09:21:52.994Z,101564.34
2023-03-21T09:24:20.808Z,101561.13
2023-03-21T09:26:51.741Z,101566.69
2023-03-21T09:29:23.364Z,101573.19
2023-03-21T09:31:50.502Z,101568.78
2023-03-21T09:34:17.563Z,101563.34
2023-03-21T09:36:48.930Z,101554.28
2023-03-21T09:39:17.393Z,101548.47
2023-03-21T09:42:05.146Z,101551.31
2023-03-21T09:44:39.164Z,101550.88
2023-03-21T09:47:21.838Z,101551.59
2023-03-21T09:50:27.310Z,101555.16
2023-03-21T09:52:59.057Z,101549.09
2023-03-21T09:55:31.218Z,101548.00
2023-03-21T09:58:16.604Z,101545.06
2023-03-21T10:00:52.117Z,101554.72
2023-03-21T10:03:19.712Z,101545.97
2023-03-21T10:05:48.612Z,101550.50
2023-03-21T10:08:27.343Z,101545.88
2023-03-21T10:11:01.477Z,101549.72
2023-03-21T10:13:33.150Z,101552.72
2023-03-21T10:16:17.643Z,101564.19
2023-03-21T10:18:45.198Z,101560.22
2023-03-21T10:21:47.442Z,101566.53
2023-03-21T10:24:20.206Z,101566.41
2023-03-21T10:26:48.322Z,101571.50
2023-03-21T10:29:17.412Z,101583.88
2023-03-21T10:31:47.465Z,101577.41
2023-03-21T10:34:38.142Z,101576.94
2023-03-21T10:37:06.306Z,101579.53
2023-03-21T10:39:37.967Z,101575.84
2023-03-21T10:42:04.994Z,101571.25
2023-03-21T10:44:34.805Z,101577.25
2023-03-21T10:47:08.355Z,101569.06
2023-03-21T10:50:06.733Z,101554.06
2023-03-21T10:52:30.765Z,101554.72
2023-03-21T10:55:16.415Z,101555.28
2023-03-21T10:57:43.625Z,101555.13
2023-03-21T11:00:20.458Z,101545.84
2023-03-21T11:02:53.163Z,101551.31
2023-03-21T11:05:27.912Z,101552.38
2023-03-21T11:08:01.677Z,101543.28
2023-03-21T11:10:32.767Z,101553.03
2023-03-21T11:13:05.570Z,101550.50
2023-03-21T11:15:49.162Z,101545.44
2023-03-21T11:18:21.005Z,101544.72
2023-03-21T11:20:57.028Z,101543.66
2023-03-21T11:23:30.717Z,101541.47
2023-03-21T11:26:00.586Z,101543.56
2023-03-21T11:28:38.430Z,101537.84
2023-03-21T11:31:09.436Z,101528.97
2023-03-21T11:33:52.218Z,101538.66
2023-03-21T11:36:19.148Z,101542.97
2023-03-21T11:38:53.271Z,101545.06
2023-03-21T11:41:30.782Z,101537.81
2023-03-21T11:43:58.922Z,101535.16
2023-03-21T11:46:28.333Z,101529.09
2023-03-21T11:48:56.969Z,101523.66
2023-03-21T11:51:37.343Z,101528.56
2023-03-21T11:54:17.926Z,101527.69
2023-03-21T11:56:49.517Z,101540.19
2023-03-21T11:59:16.688Z,101547.69
2023-03-21T12:02:13.524Z,101535.41
2023-03-21T12:05:05.468Z,101541.53
2023-03-21T12:08:09.200Z,101543.84
2023-03-21T12:10:54.509Z,101524.50
2023-03-21T12:13:46.348Z,101519.28
2023-03-21T12:16:27.541Z,101522.28
2023-03-21T12:19:16.361Z,101523.56
2023-03-21T12:21:43.223Z,101534.41
2023-03-21T12:24:23.450Z,101523.19
2023-03-21T12:27:00.102Z,101526.16
2023-03-21T12:29:57.475Z,101520.81
2023-03-21T12:32:49.872Z,101516.50
2023-03-21T12:35:23.789Z,101518.47
2023-03-21T12:38:06.838Z,101513.53
2023-03-21T12:40:55.589Z,101525.72
2023-03-21T12:43:34.409Z,101528.66
2023-03-21T12:46:05.917Z,101507.34
2023-03-21T12:49:00.398Z,101511.75
2023-03-21T12:51:34.956Z,101497.44
2023-03-21T12:54:04.502Z,101503.69
2023-03-21T12:56:38.437Z,101514.19
2023-03-21T12:59:28.670Z,101514.59
2023-03-21T13:02:01.123Z,101498.63
2023-03-21T13:04:44.115Z,101496.38
2023-03-21T13:07:17.699Z,101484.09
2023-03-21T13:09:44.692Z,101479.56
2023-03-21T13:12:41.974Z,101468.44
2023-03-21T13:15:40.008Z,101466.59
2023-03-21T13:18:26.285Z,101472.59
2023-03-21T13:20:58.418Z,101453.22
2023-03-21T13:23:33.148Z,101467.13
2023-03-21T13:26:00.355Z,101453.53
2023-03-21T13:28:34.467Z,101455.06
2023-03-21T13:31:25.076Z,101446.59
2023-03-21T13:33:55.028Z,101448.31
2023-03-21T13:36:34.155Z,101449.69
2023-03-21T13:39:06.174Z,101455.09
2023-03-21T13:41:39.120Z,101452.13
2023-03-21T13:44:23.342Z,101457.97
2023-03-21T13:47:05.035Z,101459.66
2023-03-21T13:49:38.291Z,101454.81
2023-03-21T13:52:12.200Z,101442.25
2023-03-21T13:54:39.642Z,101430.72
2023-03-21T13:57:07.485Z,101432.81
2023-03-21T13:59:40.539Z,101446.88
2023-03-21T14:02:13.538Z,101433.13
2023-03-21T14:04:54.197Z,101433.38
2023-03-21T14:07:52.883Z,101432.34
2023-03-21T14:10:52.227Z,101417.50
2023-03-21T14:13:26.597Z,101426.16
2023-03-21T14:16:12.855Z,101417.63
2023-03-21T14:19:02.187Z,101432.69
2023-03-21T14:21:33.336Z,101431.97
2023-03-21T14:24:01.917Z,101432.94
2023-03-21T14:26:45.850Z,101428.41
2023-03-21T14:29:42.055Z,101426.56
2023-03-21T14:32:22.125Z,101426.44
2023-03-21T14:34:49.608Z,101436.38
2023-03-21T14:37:34.315Z,101436.94
2023-03-21T14:40:09.096Z,101429.84
2023-03-21T14:42:38.174Z,101412.81
2023-03-21T14:45:18.941Z,101408.56
2023-03-21T14:48:01.612Z,101409.25
2023-03-21T14:50:36.705Z,101407.41
2023-03-21T14:53:04.032Z,101405.72
2023-03-21T14:55:31.954Z,101409.97
2023-03-21T14:58:00.882Z,101401.72
2023-03-21T15:00:31.208Z,101406.84
2023-03-21T15:03:00.383Z,101398.31
2023-03-21T15:05:34.839Z,101412.81
2023-03-21T15:08:14.790Z,101406.81
2023-03-21T15:11:06.011Z,101402.16
2023-03-21T15:13:37.640Z,101406.53
2023-03-21T15:16:05.470Z,101389.38
2023-03-21T15:18:35.073Z,101399.91
2023-03-21T15:21:12.608Z,101405.03
2023-03-21T15:23:52.895Z,101394.47
2023-03-21T15:26:23.680Z,101389.25
2023-03-21T15:28:57.030Z,101376.00
2023-03-21T15:31:29.880Z,101374.53
2023-03-21T15:33:57.320Z,101382.31
2023-03-21T15:36:33.075Z,101369.25
2023-03-21T15:39:08.645Z,101364.72
2023-03-21T15:41:35.818Z,101367.69
2023-03-21T15:44:08.937Z,101385.38
2023-03-21T15:46:46.391Z,101389.19
2023-03-21T15:49:13.342Z,101378.16
2023-03-21T15:51:54.291Z,101381.41
2023-03-21T15:54:50.971Z,101365.09
2023-03-21T15:57:33.172Z,101366.75
2023-03-21T16:00:25.697Z,101370.59
2023-03-21T16:03:02.983Z,101364.00
2023-03-21T16:05:32.772Z,101368.66
2023-03-21T16:08:24.174Z,101362.88
2023-03-21T16:10:51.142Z,101368.13
2023-03-21T16:13:18.215Z,101374.84
2023-03-21T16:15:47.209Z,101374.16
2023-03-21T16:18:18.127Z,101380.72
2023-03-21T16:20:46.747Z,101368.41
2023-03-21T16:23:15.886Z,101376.97
2023-03-21T16:25:52.935Z,101382.56
2023-03-21T16:28:20.438Z,101382.81
2023-03-21T16:30:47.472Z,101385.44
2023-03-21T16:33:14.666Z,101389.81
2023-03-21T16:35:41.760Z,101381.84
2023-03-21T16:38:12.541Z,101389.38
2023-03-21T16:40:43.176Z,101377.09
2023-03-21T16:43:11.477Z,101378.19
2023-03-21T16:45:38.610Z,101376.91
2023-03-21T16:48:09.029Z,101384.72
2023-03-21T16:50:42.375Z,101390.81
2023-03-21T16:53:09.838Z,101395.22
2023-03-21T16:55:38.936Z,101389.50
2023-03-21T16:58:06.614Z,101385.59
2023-03-21T17:00:33.840Z,101387.81
2023-03-21T17:03:02.765Z,101390.13
2023-03-21T17:05:33.038Z,101382.47
2023-03-21T17:08:02.547Z,101386.59
2023-03-21T17:10:31.792Z,101382.78
2023-03-21T17:12:59.088Z,101376.69
2023-03-21T17:15:26.096Z,101373.13
2023-03-21T17:17:55.683Z,101376.28
2023-03-21T17:20:32.173Z,101373.38
2023-03-21T17:23:00.501Z,101372.16
2023-03-21T17:25:27.392Z,101375.28
2023-03-21T17:27:54.692Z,101375.75
2023-03-21T17:30:30.606Z,101385.00
2023-03-21T17:32:58.744Z,101380.47
2023-03-21T17:35:27.352Z,101384.59
2023-03-21T17:37:58.485Z,101379.34
2023-03-21T17:40:29.068Z,101382.72
2023-03-21T17:42:56.876Z,101389.81
2023-03-21T17:45:24.512Z,101378.47
2023-03-21T17:47:51.876Z,101387.41
2023-03-21T17:50:22.736Z,101377.41
2023-03-21T17:52:50.947Z,101378.97
2023-03-21T17:55:21.875Z,101378.28
2023-03-21T17:57:49.566Z,101380.69
2023-03-21T18:00:23.094Z,101381.28
2023-03-21T18:02:50.343Z,101383.97
2023-03-21T18:05:17.428Z,101386.66
2023-03-21T18:08:08.719Z,101381.72
2023-03-21T18:10:33.966Z,101382.00
2023-03-21T18:13:00.945Z,101387.38
2023-03-21T18:15:30.418Z,101388.31
2023-03-21T18:17:58.485Z,101386.09
2023-03-21T18:20:50.355Z,101386.09
2023-03-21T18:23:18.822Z,101383.75
2023-03-21T18:25:47.075Z,101385.34
2023-03-21T18:28:17.649Z,101379.63
2023-03-21T18:33:37.161Z,101382.25
2023-03-21T18:36:07.494Z,101389.63
2023-03-21T18:38:35.724Z,101388.16
2023-03-21T18:41:02.732Z,101389.25
2023-03-21T18:46:17.660Z,101396.97
2023-03-21T18:48:44.768Z,101394.06
2023-03-21T18:51:12.432Z,101394.56
2023-03-21T18:53:39.381Z,101390.91
2023-03-21T18:56:10.186Z,101398.00
2023-03-21T18:58:37.517Z,101403.38
2023-03-21T19:01:05.385Z,101401.94
2023-03-21T19:03:37.078Z,101399.00
2023-03-21T19:06:05.669Z,101405.50
2023-03-21T19:08:35.134Z,101411.25
2023-03-21T19:11:06.048Z,101415.66
2023-03-21T19:13:33.613Z,101416.00
2023-03-21T19:16:02.770Z,101423.97
2023-03-21T19:21:19.238Z,101425.78
2023-03-21T19:26:34.177Z,101427.63
2023-03-21T19:29:01.437Z,101426.66
2023-03-21T19:31:28.496Z,101428.38
2023-03-21T19:33:55.877Z,101424.94
2023-03-21T19:36:23.753Z,101428.88
2023-03-21T19:38:51.654Z,101437.91
2023-03-21T19:41:20.365Z,101444.50
2023-03-21T19:43:54.726Z,101441.59
2023-03-21T19:46:25.581Z,101443.28
2023-03-21T19:48:57.107Z,101444.28
2023-03-21T19:51:29.452Z,101444.50
2023-03-21T19:54:02.815Z,101446.22
2023-03-21T19:56:31.620Z,101446.59
2023-03-21T19:58:59.063Z,101444.19
2023-03-21T20:01:26.757Z,101449.41
2023-03-21T20:03:54.203Z,101451.13
2023-03-21T20:06:23.793Z,101460.16
2023-03-21T20:11:39.378Z,101460.41
2023-03-21T20:14:06.521Z,101462.34
2023-03-21T20:16:35.973Z,101465.06
2023-03-21T20:19:09.046Z,101459.56
2023-03-21T20:21:48.127Z,101463.38
2023-03-21T20:24:19.101Z,101462.59
2023-03-21T20:26:46.573Z,101462.59
2023-03-21T20:30:07.528Z,101458.06
2023-03-21T20:32:00.907Z,101458.56
2023-03-21T20:34:29.077Z,101456.84
2023-03-21T20:36:58.568Z,101451.72
2023-03-21T20:39:26.915Z,101452.59
2023-03-21T20:41:54.990Z,101451.88
2023-03-21T20:44:57.325Z,101460.66
2023-03-21T20:47:09.044Z,101458.09
2023-03-21T20:49:36.090Z,101467.84
2023-03-21T20:54:55.312Z,101478.97
2023-03-21T20:57:22.398Z,101481.06
2023-03-21T20:59:50.318Z,101485.56
2023-03-21T21:02:17.431Z,101489.84
2023-03-21T21:05:08.156Z,101483.59
2023-03-21T21:07:31.940Z,101486.19
2023-03-21T21:09:59.121Z,101479.72
2023-03-21T21:12:29.008Z,101486.78
2023-03-21T21:14:56.771Z,101484.09
2023-03-21T21:17:46.554Z,101481.41
2023-03-21T21:20:18.491Z,101474.19
2023-03-21T21:22:58.472Z,101473.22
2023-03-21T21:25:27.910Z,101483.13
2023-03-21T21:27:54.894Z,101483.13
2023-03-21T21:30:22.774Z,101484.56
2023-03-21T21:32:49.764Z,101473.13
2023-03-21T21:35:19.586Z,101464.19
2023-03-21T21:37:47.321Z,101461.38
2023-03-21T21:40:16.782Z,101464.78
2023-03-21T21:42:44.184Z,101462.84
2023-03-21T21:45:13.248Z,101461.13
2023-03-21T21:47:40.557Z,101463.06
2023-03-21T21:50:08.287Z,101479.09
2023-03-21T21:52:35.592Z,101469.31
2023-03-21T21:55:04.126Z,101470.44
2023-03-21T21:57:34.420Z,101474.69
2023-03-21T22:00:12.954Z,101472.09
2023-03-21T22:02:41.566Z,101465.06
2023-03-21T22:05:09.420Z,101465.06
2023-03-21T22:07:37.689Z,101466.03
2023-03-21T22:10:05.529Z,101463.59
2023-03-21T22:12:32.664Z,101451.13
2023-03-21T22:14:59.607Z,101442.44
2023-03-21T22:17:26.666Z,101449.41
2023-03-21T22:20:05.090Z,101448.44
2023-03-21T22:22:34.163Z,101449.03
2023-03-21T22:25:01.811Z,101458.22
2023-03-21T22:27:30.106Z,101462.00
2023-03-21T22:30:04.841Z,101453.81
2023-03-21T22:32:32.796Z,101446.72
2023-03-21T22:35:02.394Z,101443.34
2023-03-21T22:37:34.787Z,101439.91
2023-03-21T22:40:02.252Z,101439.31
2023-03-21T22:42:29.189Z,101437.59
2023-03-21T22:44:56.239Z,101441.03
2023-03-21T22:47:23.073Z,101443.81
2023-03-21T22:49:50.174Z,101442.84
2023-03-21T22:52:17.408Z,101443.81
2023-03-21T22:54:45.985Z,101450.91
2023-03-21T22:57:13.812Z,101463.59
2023-03-21T22:59:41.224Z,101454.81
2023-03-21T23:02:09.614Z,101449.94
2023-03-21T23:04:37.112Z,101451.63
2023-03-21T23:07:04.547Z,101457.97
2023-03-21T23:09:31.637Z,101464.56
2023-03-21T23:11:58.583Z,101461.16
2023-03-21T23:14:25.804Z,101451.25
2023-03-21T23:16:53.669Z,101447.22
2023-03-21T23:19:21.832Z,101450.88
2023-03-21T23:21:48.944Z,101455.75
2023-03-21T23:24:15.998Z,101447.97
2023-03-21T23:26:42.932Z,101442.84
2023-03-21T23:29:11.666Z,101444.28
2023-03-21T23:31:38.828Z,101441.72
2023-03-21T23:34:06.314Z,101430.38
2023-03-21T23:36:33.302Z,101438.66
2023-03-21T23:39:00.748Z,101433.31
2023-03-21T23:41:27.726Z,101437.19
2023-03-21T23:43:54.717Z,101427.69
2023-03-21T23:46:21.629Z,101423.50
2023-03-21T23:48:48.964Z,101422.03
2023-03-21T23:51:17.842Z,101419.25
2023-03-21T23:53:46.255Z,101419.25
2023-03-21T23:56:24.829Z,101419.50
2023-03-21T23:58:52.459Z,101419.09
